Time;durP1;ratioP1;P1;durP2;ratioP2;P2;SDS_P1;SDS_P2;PMS_P1;PMS_P2;Temp;Humidity;BMP_temperature;BMP_pressure;BME280_temperature;BME280_humidity;BME280_pressure;Samples;Min_cycle;Max_cycle;Signal;HPM_P1;HPM_P2
2023/05/25 00:00:31;0.00;0.00;0.62;0.00;0.00;0.62;4.40;2.90;;;26.70;23.40;;;;;;2240387;58;20382;-65
2023/05/25 00:03:21;0.00;0.00;0.62;0.00;0.00;0.62;4.23;3.83;;;26.70;23.40;;;;;;2250174;61;20939;-65
2023/05/25 00:06:28;0.00;0.00;0.62;0.00;0.00;0.62;3.97;3.40;;;26.70;23.40;;;;;;2250803;61;20480;-65
2023/05/25 00:09:17;0.00;0.00;0.62;0.00;0.00;0.62;3.93;3.10;;;26.70;23.50;;;;;;2249151;61;20414;-66
2023/05/25 00:12:16;0.00;0.00;0.62;0.00;0.00;0.62;4.80;3.93;;;26.70;23.40;;;;;;2248717;61;20447;-66
2023/05/25 00:15:04;0.00;0.00;0.62;0.00;0.00;0.62;5.10;3.50;;;26.70;23.40;;;;;;2382107;53;20447;-64
2023/05/25 00:18:02;0.00;0.00;0.62;0.00;0.00;0.62;4.43;3.60;;;26.70;24.00;;;;;;2267664;61;20406;-64
2023/05/25 00:20:57;0.00;0.00;0.62;0.00;0.00;0.62;5.27;3.27;;;26.60;23.30;;;;;;2337410;53;20369;-65
2023/05/25 00:24:00;0.00;0.00;0.62;0.00;0.00;0.62;3.40;2.93;;;26.60;23.30;;;;;;2248660;61;20415;-65
2023/05/25 00:26:46;0.00;0.00;0.62;0.00;0.00;0.62;5.53;3.87;;;26.60;23.30;;;;;;2251306;61;20394;-64
2023/05/25 00:29:41;0.00;0.00;0.62;0.00;0.00;0.62;2.97;2.67;;;26.70;23.40;;;;;;2250663;61;20379;-64
2023/05/25 00:32:38;0.00;0.00;0.62;0.00;0.00;0.62;3.40;3.10;;;26.60;23.30;;;;;;2257285;58;20433;-65
2023/05/25 00:35:34;0.00;0.00;0.62;0.00;0.00;0.62;4.00;3.30;;;26.60;23.30;;;;;;2254328;61;20399;-65
2023/05/25 00:38:49;0.00;0.00;0.62;0.00;0.00;0.62;4.07;3.53;;;26.60;23.30;;;;;;2261594;61;20783;-66
2023/05/25 00:41:43;0.00;0.00;0.62;0.00;0.00;0.62;3.63;3.33;;;26.60;23.40;;;;;;2248483;61;20799;-66
2023/05/25 00:44:32;0.00;0.00;0.62;0.00;0.00;0.62;4.20;3.63;;;26.60;23.40;;;;;;2255931;61;20471;-65
2023/05/25 00:47:35;0.00;0.00;0.62;0.00;0.00;0.62;3.70;2.80;;;26.60;23.40;;;;;;2268085;61;20430;-65
2023/05/25 00:50:41;0.00;0.00;0.62;0.00;0.00;0.62;6.00;3.57;;;26.60;23.40;;;;;;2253680;61;20439;-65
2023/05/25 00:53:32;0.00;0.00;0.62;0.00;0.00;0.62;5.43;3.73;;;26.60;23.40;;;;;;2243452;61;20920;-65
2023/05/25 00:56:38;0.00;0.00;0.62;0.00;0.00;0.62;5.70;4.07;;;26.60;23.40;;;;;;2249454;61;20459;-67
2023/05/25 00:59:40;0.00;0.00;0.62;0.00;0.00;0.62;4.30;3.90;;;26.60;23.40;;;;;;2248407;61;20425;-65
2023/05/25 01:02:47;0.00;0.00;0.62;0.00;0.00;0.62;4.07;2.90;;;26.60;23.40;;;;;;2244414;61;20407;-66
2023/05/25 01:05:44;0.00;0.00;0.62;0.00;0.00;0.62;4.83;3.57;;;26.60;23.40;;;;;;2251290;58;20924;-65
2023/05/25 01:08:54;0.00;0.00;0.62;0.00;0.00;0.62;3.80;3.10;;;26.60;23.40;;;;;;2245639;61;20368;-67
2023/05/25 01:11:51;0.00;0.00;0.62;0.00;0.00;0.62;3.60;3.20;;;26.60;23.30;;;;;;2248931;61;20372;-63
2023/05/25 01:14:45;0.00;0.00;0.62;0.00;0.00;0.62;5.67;4.50;;;26.60;23.30;;;;;;2248377;61;20411;-66
2023/05/25 01:17:59;0.00;0.00;0.62;0.00;0.00;0.62;3.83;3.30;;;26.60;23.40;;;;;;2248220;61;20414;-64
2023/05/25 01:21:40;0.00;0.00;0.62;0.00;0.00;0.62;3.90;3.00;;;26.60;23.40;;;;;;2247533;61;20407;-66
2023/05/25 01:25:08;0.00;0.00;0.62;0.00;0.00;0.62;4.23;3.50;;;26.50;23.30;;;;;;2249203;61;20422;-65
2023/05/25 01:28:10;0.00;0.00;0.62;0.00;0.00;0.62;4.33;3.10;;;26.60;23.30;;;;;;2248778;61;20386;-65
2023/05/25 01:31:01;0.00;0.00;0.62;0.00;0.00;0.62;3.57;3.20;;;26.50;23.30;;;;;;2249310;61;20493;-66
2023/05/25 01:33:50;0.00;0.00;0.62;0.00;0.00;0.62;3.97;3.30;;;26.50;23.30;;;;;;2252661;61;20983;-66
2023/05/25 01:36:53;0.00;0.00;0.62;0.00;0.00;0.62;4.07;3.37;;;26.60;23.30;;;;;;2251865;61;20394;-67
2023/05/25 01:39:43;0.00;0.00;0.62;0.00;0.00;0.62;3.77;3.20;;;26.50;23.30;;;;;;2252238;61;20793;-66
2023/05/25 01:43:02;0.00;0.00;0.62;0.00;0.00;0.62;4.03;3.63;;;26.50;23.20;;;;;;2248360;61;20464;-66
2023/05/25 01:45:53;0.00;0.00;0.62;0.00;0.00;0.62;4.07;3.63;;;26.50;23.20;;;;;;2252571;61;20386;-67
2023/05/25 01:48:58;0.00;0.00;0.62;0.00;0.00;0.62;3.40;3.10;;;26.50;23.10;;;;;;2252661;61;20705;-66
2023/05/25 01:52:06;0.00;0.00;0.62;0.00;0.00;0.62;3.43;3.00;;;26.60;23.10;;;;;;2251843;61;20414;-66
2023/05/25 01:55:04;0.00;0.00;0.62;0.00;0.00;0.62;3.27;2.97;;;26.60;23.10;;;;;;2249400;61;20422;-64
2023/05/25 01:57:57;0.00;0.00;0.62;0.00;0.00;0.62;3.63;3.23;;;26.60;23.10;;;;;;2248639;61;20942;-66
2023/05/25 02:00:52;0.00;0.00;0.62;0.00;0.00;0.62;3.50;3.03;;;26.60;23.10;;;;;;2248611;61;20823;-65
2023/05/25 02:03:39;0.00;0.00;0.62;0.00;0.00;0.62;4.10;3.13;;;26.60;23.10;;;;;;2245554;61;20842;-66
2023/05/25 02:06:37;0.00;0.00;0.62;0.00;0.00;0.62;3.53;3.23;;;26.60;23.10;;;;;;2248463;61;20478;-66
2023/05/25 02:09:26;0.00;0.00;0.62;0.00;0.00;0.62;4.03;3.33;;;26.50;23.00;;;;;;2247886;61;20415;-66
2023/05/25 02:12:26;0.00;0.00;0.62;0.00;0.00;0.62;3.47;3.17;;;26.60;23.10;;;;;;2247533;61;20371;-66
2023/05/25 02:15:24;0.00;0.00;0.62;0.00;0.00;0.62;4.60;3.73;;;26.50;23.00;;;;;;2248786;61;20521;-66
2023/05/25 02:18:16;0.00;0.00;0.62;0.00;0.00;0.62;4.80;4.10;;;26.50;23.00;;;;;;2245290;61;20364;-64
2023/05/25 02:21:04;0.00;0.00;0.62;0.00;0.00;0.62;3.43;3.00;;;26.50;23.00;;;;;;2247197;61;20420;-65
2023/05/25 02:24:03;0.00;0.00;0.62;0.00;0.00;0.62;3.73;3.20;;;26.50;23.00;;;;;;2251926;61;20770;-65
2023/05/25 02:26:58;0.00;0.00;0.62;0.00;0.00;0.62;3.57;2.83;;;26.50;23.00;;;;;;2248903;61;20418;-63
2023/05/25 02:30:02;0.00;0.00;0.62;0.00;0.00;0.62;3.53;3.13;;;26.50;23.00;;;;;;2249124;61;20397;-65
2023/05/25 02:32:55;0.00;0.00;0.62;0.00;0.00;0.62;4.27;3.47;;;26.50;23.00;;;;;;2252433;61;21029;-65
2023/05/25 02:35:54;0.00;0.00;0.62;0.00;0.00;0.62;3.77;3.37;;;26.50;23.00;;;;;;2251965;61;20385;-65
2023/05/25 02:38:46;0.00;0.00;0.62;0.00;0.00;0.62;2.93;2.63;;;26.50;23.00;;;;;;2252928;61;20367;-66
2023/05/25 02:41:39;0.00;0.00;0.62;0.00;0.00;0.62;3.23;2.40;;;26.50;23.00;;;;;;2249265;61;20371;-66
2023/05/25 02:44:33;0.00;0.00;0.62;0.00;0.00;0.62;3.50;2.70;;;26.50;23.00;;;;;;2249484;61;20414;-66
2023/05/25 02:47:25;0.00;0.00;0.62;0.00;0.00;0.62;3.47;3.17;;;26.40;23.00;;;;;;2249641;61;20433;-66
2023/05/25 02:50:22;0.00;0.00;0.62;0.00;0.00;0.62;3.40;3.00;;;26.50;23.00;;;;;;2252010;61;20405;-66
2023/05/25 02:53:13;0.00;0.00;0.62;0.00;0.00;0.62;3.33;2.73;;;26.40;23.00;;;;;;2249314;61;20808;-63
2023/05/25 02:56:00;0.00;0.00;0.62;0.00;0.00;0.62;3.87;3.10;;;26.40;23.00;;;;;;2248848;61;20538;-65
2023/05/25 02:58:55;0.00;0.00;0.62;0.00;0.00;0.62;3.93;2.50;;;26.40;23.00;;;;;;2249086;61;20939;-65
2023/05/25 03:02:06;0.00;0.00;0.62;0.00;0.00;0.62;5.13;3.70;;;26.40;23.00;;;;;;2249814;61;20359;-65
2023/05/25 03:04:56;0.00;0.00;0.62;0.00;0.00;0.62;4.40;3.03;;;26.40;23.00;;;;;;2244151;61;20403;-65
2023/05/25 03:07:50;0.00;0.00;0.62;0.00;0.00;0.62;3.77;3.37;;;26.40;23.00;;;;;;2245591;61;20411;-65
2023/05/25 03:10:40;0.00;0.00;0.62;0.00;0.00;0.62;2.90;2.70;;;26.40;23.00;;;;;;2244510;61;20407;-64
2023/05/25 03:13:32;0.00;0.00;0.62;0.00;0.00;0.62;2.60;2.40;;;26.40;23.00;;;;;;2244750;61;20402;-64
2023/05/25 03:16:26;0.00;0.00;0.62;0.00;0.00;0.62;4.47;3.37;;;26.40;23.00;;;;;;2245475;61;20391;-65
2023/05/25 03:19:15;0.00;0.00;0.62;0.00;0.00;0.62;2.73;2.53;;;26.30;22.90;;;;;;2243996;61;20419;-64
2023/05/25 03:22:04;0.00;0.00;0.62;0.00;0.00;0.62;3.93;3.30;;;26.30;22.90;;;;;;2245524;61;20854;-66
2023/05/25 03:24:55;0.00;0.00;0.62;0.00;0.00;0.62;3.60;3.30;;;26.30;22.90;;;;;;2242607;61;20388;-64
2023/05/25 03:27:45;0.00;0.00;0.62;0.00;0.00;0.62;3.60;2.77;;;26.30;22.90;;;;;;2247906;61;21016;-66
2023/05/25 03:30:41;0.00;0.00;0.62;0.00;0.00;0.62;4.07;2.80;;;26.30;22.90;;;;;;2245014;61;20663;-65
2023/05/25 03:33:29;0.00;0.00;0.62;0.00;0.00;0.62;4.23;3.40;;;26.30;22.90;;;;;;2247458;61;20507;-64
2023/05/25 03:36:26;0.00;0.00;0.62;0.00;0.00;0.62;3.10;2.80;;;26.30;22.90;;;;;;2245599;61;20934;-66
2023/05/25 03:39:14;0.00;0.00;0.62;0.00;0.00;0.62;4.30;3.00;;;26.30;22.90;;;;;;2244714;61;20969;-65
2023/05/25 03:42:16;0.00;0.00;0.62;0.00;0.00;0.62;3.70;3.40;;;26.30;22.90;;;;;;2244716;61;20363;-64
2023/05/25 03:45:18;0.00;0.00;0.62;0.00;0.00;0.62;3.83;3.10;;;26.20;22.90;;;;;;2245293;61;20383;-68
2023/05/25 03:48:10;0.00;0.00;0.62;0.00;0.00;0.62;3.33;2.83;;;26.30;23.00;;;;;;2247973;61;20394;-66
2023/05/25 03:51:08;0.00;0.00;0.62;0.00;0.00;0.62;3.50;3.20;;;26.30;23.00;;;;;;2247822;61;20396;-65
2023/05/25 03:54:13;0.00;0.00;0.62;0.00;0.00;0.62;3.00;2.70;;;26.30;23.00;;;;;;2245174;61;20917;-65
2023/05/25 03:57:07;0.00;0.00;0.62;0.00;0.00;0.62;3.10;2.80;;;26.20;23.00;;;;;;2244297;61;20460;-66
2023/05/25 03:59:58;0.00;0.00;0.62;0.00;0.00;0.62;3.33;3.03;;;26.20;23.00;;;;;;2244648;61;20360;-66
2023/05/25 04:02:46;0.00;0.00;0.62;0.00;0.00;0.62;6.03;2.97;;;26.20;23.00;;;;;;2248600;61;20459;-65
2023/05/25 04:05:35;0.00;0.00;0.62;0.00;0.00;0.62;3.00;2.70;;;26.20;23.10;;;;;;2249232;61;20441;-65
2023/05/25 04:08:27;0.00;0.00;0.62;0.00;0.00;0.62;3.10;2.80;;;26.20;23.10;;;;;;2252959;61;20383;-67
2023/05/25 04:11:18;0.00;0.00;0.62;0.00;0.00;0.62;3.20;2.60;;;26.20;23.10;;;;;;2251430;61;20389;-66
2023/05/25 04:14:21;0.00;0.00;0.62;0.00;0.00;0.62;3.30;2.97;;;26.20;23.10;;;;;;2251342;61;20415;-65
2023/05/25 04:17:35;0.00;0.00;0.62;0.00;0.00;0.62;3.33;2.50;;;26.20;23.10;;;;;;2245408;61;21007;-65
2023/05/25 04:20:25;0.00;0.00;0.62;0.00;0.00;0.62;3.47;2.97;;;26.20;23.10;;;;;;2231244;62;20379;-66
2023/05/25 04:23:25;0.00;0.00;0.62;0.00;0.00;0.62;3.30;2.90;;;26.20;23.10;;;;;;2232096;62;20457;-65
2023/05/25 04:26:21;0.00;0.00;0.62;0.00;0.00;0.62;3.70;3.03;;;26.20;23.20;;;;;;2228031;62;20911;-65
2023/05/25 04:29:30;0.00;0.00;0.62;0.00;0.00;0.62;4.00;3.00;;;26.10;23.10;;;;;;2231739;62;20435;-64
2023/05/25 04:32:49;0.00;0.00;0.62;0.00;0.00;0.62;3.73;3.20;;;26.20;23.20;;;;;;2231437;62;20976;-65
2023/05/25 04:35:58;0.00;0.00;0.62;0.00;0.00;0.62;3.60;3.30;;;26.10;23.10;;;;;;2245837;61;20488;-66
2023/05/25 04:39:16;0.00;0.00;0.62;0.00;0.00;0.62;3.30;2.90;;;26.10;23.10;;;;;;2245584;61;20371;-65
2023/05/25 04:42:41;0.00;0.00;0.62;0.00;0.00;0.62;3.10;2.80;;;26.10;23.20;;;;;;2245362;61;20447;-66
2023/05/25 04:45:56;0.00;0.00;0.62;0.00;0.00;0.62;4.07;3.30;;;26.10;23.20;;;;;;2241151;61;20414;-66
2023/05/25 04:49:12;0.00;0.00;0.62;0.00;0.00;0.62;4.73;3.40;;;26.10;23.20;;;;;;2244704;61;20372;-65
2023/05/25 04:52:10;0.00;0.00;0.62;0.00;0.00;0.62;3.90;3.50;;;26.10;23.20;;;;;;2245489;61;20854;-65
2023/05/25 04:55:30;0.00;0.00;0.62;0.00;0.00;0.62;3.53;3.17;;;26.10;23.20;;;;;;2244713;61;20443;-65
2023/05/25 04:59:10;0.00;0.00;0.62;0.00;0.00;0.62;3.90;3.50;;;26.10;23.20;;;;;;2245532;61;20895;-64
2023/05/25 05:02:03;0.00;0.00;0.62;0.00;0.00;0.62;5.10;3.80;;;26.00;23.20;;;;;;2247722;61;20378;-66
2023/05/25 05:05:02;0.00;0.00;0.62;0.00;0.00;0.62;3.93;3.53;;;26.10;23.30;;;;;;2249404;61;20426;-65
2023/05/25 05:07:54;0.00;0.00;0.62;0.00;0.00;0.62;4.97;4.30;;;26.10;23.30;;;;;;2253057;61;20371;-64
2023/05/25 05:11:09;0.00;0.00;0.62;0.00;0.00;0.62;4.10;3.33;;;26.00;23.20;;;;;;2248272;61;20454;-65
2023/05/25 05:14:09;0.00;0.00;0.62;0.00;0.00;0.62;3.90;3.50;;;26.00;23.20;;;;;;2243844;61;20422;-66
2023/05/25 05:17:11;0.00;0.00;0.62;0.00;0.00;0.62;5.40;4.80;;;26.00;23.20;;;;;;2249152;61;20382;-65
2023/05/25 05:20:12;0.00;0.00;0.62;0.00;0.00;0.62;5.20;3.83;;;26.00;23.20;;;;;;2249363;61;20374;-66
2023/05/25 05:23:20;0.00;0.00;0.62;0.00;0.00;0.62;4.90;4.40;;;26.00;23.20;;;;;;2249319;61;20421;-66
2023/05/25 05:26:50;0.00;0.00;0.62;0.00;0.00;0.62;4.83;4.40;;;26.00;23.20;;;;;;2248553;61;20386;-65
2023/05/25 05:30:14;0.00;0.00;0.62;0.00;0.00;0.62;5.83;5.20;;;26.00;23.40;;;;;;2236379;61;20718;-65
2023/05/25 05:33:35;0.00;0.00;0.62;0.00;0.00;0.62;4.97;4.47;;;26.00;23.20;;;;;;2248678;61;20452;-66
2023/05/25 05:36:51;0.00;0.00;0.62;0.00;0.00;0.62;5.90;4.63;;;26.00;23.30;;;;;;2249536;61;20390;-64
2023/05/25 05:40:00;0.00;0.00;0.62;0.00;0.00;0.62;5.17;4.67;;;26.00;23.30;;;;;;2247796;61;20406;-66
2023/05/25 05:43:11;0.00;0.00;0.62;0.00;0.00;0.62;4.80;4.03;;;26.00;23.30;;;;;;2249487;61;20763;-63
2023/05/25 05:46:14;0.00;0.00;0.62;0.00;0.00;0.62;5.53;5.03;;;26.00;23.30;;;;;;2248672;61;20418;-65
2023/05/25 05:49:28;0.00;0.00;0.62;0.00;0.00;0.62;5.00;4.40;;;26.00;23.20;;;;;;2248758;61;20374;-65
2023/05/25 05:52:26;0.00;0.00;0.62;0.00;0.00;0.62;6.50;4.90;;;26.00;23.30;;;;;;2249367;61;20362;-68
2023/05/25 05:55:53;0.00;0.00;0.62;0.00;0.00;0.62;5.90;5.00;;;25.90;23.20;;;;;;2248340;61;20387;-65
2023/05/25 05:58:53;0.00;0.00;0.62;0.00;0.00;0.62;6.00;5.00;;;26.00;23.20;;;;;;2249286;61;20771;-65
2023/05/25 06:02:10;0.00;0.00;0.62;0.00;0.00;0.62;7.47;5.63;;;26.00;23.30;;;;;;2245288;61;20405;-65
2023/05/25 06:05:21;0.00;0.00;0.62;0.00;0.00;0.62;5.30;4.80;;;26.00;23.30;;;;;;2244693;61;20440;-66
2023/05/25 06:08:43;0.00;0.00;0.62;0.00;0.00;0.62;6.43;5.70;;;26.00;23.30;;;;;;2244022;61;20368;-66
2023/05/25 06:11:43;0.00;0.00;0.62;0.00;0.00;0.62;5.30;4.80;;;26.00;23.30;;;;;;2240972;61;20448;-65
2023/05/25 06:14:55;0.00;0.00;0.62;0.00;0.00;0.62;5.53;4.93;;;26.00;23.30;;;;;;2248998;61;20402;-64
2023/05/25 06:17:53;0.00;0.00;0.62;0.00;0.00;0.62;7.00;5.87;;;25.90;23.20;;;;;;2248424;61;20370;-66
2023/05/25 06:20:54;0.00;0.00;0.62;0.00;0.00;0.62;5.57;5.07;;;26.00;23.30;;;;;;2248928;61;20409;-66
2023/05/25 06:24:13;0.00;0.00;0.62;0.00;0.00;0.62;5.60;5.00;;;26.00;23.30;;;;;;2248745;61;20468;-62
2023/05/25 06:27:08;0.00;0.00;0.62;0.00;0.00;0.62;5.30;4.80;;;26.00;23.30;;;;;;2248351;61;20371;-67
2023/05/25 06:30:23;0.00;0.00;0.62;0.00;0.00;0.62;7.17;5.60;;;26.00;23.30;;;;;;2244810;61;20367;-66
2023/05/25 06:33:37;0.00;0.00;0.62;0.00;0.00;0.62;5.67;5.07;;;26.00;23.30;;;;;;2244434;61;20939;-64
2023/05/25 06:36:47;0.00;0.00;0.62;0.00;0.00;0.62;6.30;5.33;;;25.90;23.20;;;;;;2245066;61;20881;-64
2023/05/25 06:39:55;0.00;0.00;0.62;0.00;0.00;0.62;7.50;5.67;;;26.00;23.30;;;;;;2246586;61;20362;-66
2023/05/25 06:42:57;0.00;0.00;0.62;0.00;0.00;0.62;6.13;5.57;;;25.90;23.20;;;;;;2248548;61;20427;-65
2023/05/25 06:46:57;0.00;0.00;0.62;0.00;0.00;0.62;6.03;5.43;;;26.00;23.30;;;;;;2242016;61;20391;-65
2023/05/25 06:50:05;0.00;0.00;0.62;0.00;0.00;0.62;6.63;5.17;;;25.90;23.30;;;;;;2242932;61;20368;-65
2023/05/25 06:53:09;0.00;0.00;0.62;0.00;0.00;0.62;5.93;5.00;;;25.90;23.30;;;;;;2247607;61;20375;-64
2023/05/25 06:56:14;0.00;0.00;0.62;0.00;0.00;0.62;5.93;5.33;;;25.90;23.30;;;;;;2248134;61;20471;-65
2023/05/25 06:59:17;0.00;0.00;0.62;0.00;0.00;0.62;6.00;5.40;;;25.90;23.30;;;;;;2248221;61;20421;-62
2023/05/25 07:02:14;0.00;0.00;0.62;0.00;0.00;0.62;6.23;5.60;;;25.90;23.30;;;;;;2250436;61;20409;-65
2023/05/25 07:05:23;0.00;0.00;0.62;0.00;0.00;0.62;6.30;5.70;;;25.90;23.30;;;;;;2252154;61;20390;-65
2023/05/25 07:08:54;0.00;0.00;0.62;0.00;0.00;0.62;6.17;5.40;;;25.90;23.30;;;;;;2251597;61;20374;-66
2023/05/25 07:12:58;0.00;0.00;0.62;0.00;0.00;0.62;6.30;5.70;;;25.90;23.30;;;;;;2252223;61;20418;-65
2023/05/25 07:16:01;0.00;0.00;0.62;0.00;0.00;0.62;7.03;6.07;;;25.90;23.30;;;;;;2238018;61;20417;-67
2023/05/25 07:19:11;0.00;0.00;0.62;0.00;0.00;0.62;6.77;5.70;;;25.90;23.40;;;;;;2236440;61;20466;-65
2023/05/25 07:22:18;0.00;0.00;0.62;0.00;0.00;0.62;7.47;6.13;;;25.90;23.30;;;;;;2252291;61;20772;-61
2023/05/25 07:25:36;0.00;0.00;0.62;0.00;0.00;0.62;6.07;5.47;;;25.90;23.30;;;;;;2252141;61;20441;-65
2023/05/25 07:28:33;0.00;0.00;0.62;0.00;0.00;0.62;6.03;5.17;;;25.90;23.30;;;;;;2252613;61;20366;-65
2023/05/25 07:31:35;0.00;0.00;0.62;0.00;0.00;0.62;5.60;5.03;;;25.90;23.40;;;;;;2251013;61;20551;-64
2023/05/25 07:34:41;0.00;0.00;0.62;0.00;0.00;0.62;6.00;5.40;;;25.90;23.40;;;;;;2252514;61;20417;-65
2023/05/25 07:37:47;0.00;0.00;0.62;0.00;0.00;0.62;6.67;5.87;;;25.90;23.40;;;;;;2251942;61;20362;-65
2023/05/25 07:40:45;0.00;0.00;0.62;0.00;0.00;0.62;6.20;5.60;;;26.00;23.40;;;;;;2252680;61;20366;-65
2023/05/25 07:43:36;0.00;0.00;0.62;0.00;0.00;0.62;6.20;5.60;;;25.90;23.60;;;;;;2252981;61;20386;-66
2023/05/25 07:46:57;0.00;0.00;0.62;0.00;0.00;0.62;6.43;5.83;;;25.90;23.40;;;;;;2251940;61;20981;-66
2023/05/25 07:49:49;0.00;0.00;0.62;0.00;0.00;0.62;6.23;5.63;;;25.90;23.40;;;;;;2252964;61;20413;-65
2023/05/25 07:52:40;0.00;0.00;0.62;0.00;0.00;0.62;6.20;5.60;;;26.00;23.50;;;;;;2252527;61;20413;-64
2023/05/25 07:55:45;0.00;0.00;0.62;0.00;0.00;0.62;6.37;5.73;;;26.00;23.50;;;;;;2253163;61;20410;-66
2023/05/25 07:58:59;0.00;0.00;0.62;0.00;0.00;0.62;6.57;5.97;;;26.00;23.50;;;;;;2249798;61;20365;-63
2023/05/25 08:02:12;0.00;0.00;0.62;0.00;0.00;0.62;9.43;6.50;;;25.90;23.40;;;;;;2246612;61;20407;-66
2023/05/25 08:05:18;0.00;0.00;0.62;0.00;0.00;0.62;5.80;5.30;;;26.00;23.50;;;;;;2248889;61;20422;-64
2023/05/25 08:08:20;0.00;0.00;0.62;0.00;0.00;0.62;6.73;5.90;;;26.00;23.50;;;;;;2247953;61;20360;-64
2023/05/25 08:14:26;0.00;0.00;0.62;0.00;0.00;0.62;6.20;5.60;;;26.00;23.50;;;;;;2250168;61;20370;-66
2023/05/25 08:17:29;0.00;0.00;0.62;0.00;0.00;0.62;10.00;6.07;;;26.00;23.50;;;;;;2252898;61;20374;-69
2023/05/25 08:20:44;0.00;0.00;0.62;0.00;0.00;0.62;7.00;6.30;;;26.00;23.50;;;;;;2252471;61;20366;-65
2023/05/25 08:23:43;0.00;0.00;0.62;0.00;0.00;0.62;7.80;5.70;;;26.00;23.50;;;;;;2249416;61;20399;-66
2023/05/25 08:27:14;0.00;0.00;0.62;0.00;0.00;0.62;6.57;5.70;;;26.00;23.50;;;;;;2248779;61;20940;-66
2023/05/25 08:30:04;0.00;0.00;0.62;0.00;0.00;0.62;8.07;6.93;;;26.00;23.50;;;;;;2244298;61;20889;-66
2023/05/25 08:33:04;0.00;0.00;0.62;0.00;0.00;0.62;6.10;5.17;;;26.00;23.50;;;;;;2248995;61;20448;-66
2023/05/25 08:35:59;0.00;0.00;0.62;0.00;0.00;0.62;7.17;6.47;;;26.00;23.50;;;;;;2248617;61;20447;-66
2023/05/25 08:39:09;0.00;0.00;0.62;0.00;0.00;0.62;5.97;5.47;;;26.00;23.50;;;;;;2248114;61;20375;-64
2023/05/25 08:42:05;0.00;0.00;0.62;0.00;0.00;0.62;7.00;6.30;;;26.00;23.50;;;;;;2248975;61;20371;-66
2023/05/25 08:45:11;0.00;0.00;0.62;0.00;0.00;0.62;6.90;5.40;;;26.00;23.50;;;;;;2247760;61;20476;-64
2023/05/25 08:48:09;0.00;0.00;0.62;0.00;0.00;0.62;6.63;6.03;;;26.00;23.50;;;;;;2248767;61;20423;-65
2023/05/25 08:51:11;0.00;0.00;0.62;0.00;0.00;0.62;7.37;6.43;;;26.00;23.50;;;;;;2247853;61;20543;-65
2023/05/25 08:54:15;0.00;0.00;0.62;0.00;0.00;0.62;7.07;5.80;;;26.00;23.50;;;;;;2248400;61;20488;-65
2023/05/25 08:57:22;0.00;0.00;0.62;0.00;0.00;0.62;6.77;5.50;;;26.00;23.50;;;;;;2248956;61;20967;-65
2023/05/25 09:00:20;0.00;0.00;0.62;0.00;0.00;0.62;6.03;5.33;;;26.00;23.60;;;;;;2247773;61;20367;-65
2023/05/25 09:03:44;0.00;0.00;0.62;0.00;0.00;0.62;6.00;5.07;;;26.00;23.50;;;;;;2245889;61;20411;-70
2023/05/25 09:06:37;0.00;0.00;0.62;0.00;0.00;0.62;7.10;5.70;;;26.00;23.50;;;;;;2248238;61;20785;-64
2023/05/25 09:09:38;0.00;0.00;0.62;0.00;0.00;0.62;6.13;5.50;;;26.00;23.50;;;;;;2248643;61;20419;-65
2023/05/25 09:12:53;0.00;0.00;0.62;0.00;0.00;0.62;6.07;5.23;;;26.00;23.50;;;;;;2248831;61;20962;-66
2023/05/25 09:15:51;0.00;0.00;0.62;0.00;0.00;0.62;6.93;5.70;;;26.00;23.50;;;;;;2591571;46;20969;-67
2023/05/25 09:18:48;0.00;0.00;0.62;0.00;0.00;0.62;6.10;5.47;;;26.10;23.60;;;;;;2241529;61;20913;-66
2023/05/25 09:21:55;0.00;0.00;0.62;0.00;0.00;0.62;5.50;5.00;;;26.00;23.50;;;;;;2243856;61;20459;-66
2023/05/25 09:25:11;0.00;0.00;0.62;0.00;0.00;0.62;6.63;5.60;;;26.10;23.60;;;;;;2244705;61;20424;-65
2023/05/25 09:28:06;0.00;0.00;0.62;0.00;0.00;0.62;5.93;5.33;;;26.00;23.50;;;;;;2244488;61;20818;-65
2023/05/25 09:30:59;0.00;0.00;0.62;0.00;0.00;0.62;6.90;5.30;;;26.10;23.60;;;;;;2240804;61;20961;-66
2023/05/25 09:33:54;0.00;0.00;0.62;0.00;0.00;0.62;5.33;4.83;;;26.10;23.60;;;;;;2244822;61;20457;-70
2023/05/25 09:36:40;0.00;0.00;0.62;0.00;0.00;0.62;8.20;4.80;;;26.10;23.60;;;;;;2243920;61;20408;-65
2023/05/25 09:39:41;0.00;0.00;0.62;0.00;0.00;0.62;4.80;4.20;;;26.10;23.60;;;;;;2244450;61;20372;-64
2023/05/25 09:42:38;0.00;0.00;0.62;0.00;0.00;0.62;4.57;4.13;;;26.10;23.60;;;;;;2244812;61;20372;-66
2023/05/25 09:45:30;0.00;0.00;0.62;0.00;0.00;0.62;5.30;4.47;;;26.10;23.60;;;;;;2244496;61;20388;-67
2023/05/25 09:48:20;0.00;0.00;0.62;0.00;0.00;0.62;5.23;4.63;;;26.10;23.60;;;;;;2245018;61;20408;-64
2023/05/25 09:51:18;0.00;0.00;0.62;0.00;0.00;0.62;4.43;4.03;;;26.10;23.60;;;;;;2243645;61;20396;-64
2023/05/25 09:54:10;0.00;0.00;0.62;0.00;0.00;0.62;5.27;4.00;;;26.10;23.60;;;;;;2244874;61;20901;-66
2023/05/25 09:57:15;0.00;0.00;0.62;0.00;0.00;0.62;4.43;3.90;;;26.10;23.60;;;;;;2244929;61;20425;-64
2023/05/25 10:00:12;0.00;0.00;0.62;0.00;0.00;0.62;5.00;4.30;;;26.00;23.60;;;;;;2244035;61;20996;-66
2023/05/25 10:03:06;0.00;0.00;0.62;0.00;0.00;0.62;5.07;4.63;;;26.10;23.60;;;;;;2477961;53;21003;-64
2023/05/25 10:05:53;0.00;0.00;0.62;0.00;0.00;0.62;4.67;3.93;;;26.10;23.60;;;;;;2243877;61;20968;-66
2023/05/25 10:08:53;0.00;0.00;0.62;0.00;0.00;0.62;4.70;3.90;;;26.10;23.60;;;;;;2244493;61;20368;-65
2023/05/25 10:11:46;0.00;0.00;0.62;0.00;0.00;0.62;4.90;4.40;;;26.10;23.60;;;;;;2244512;61;20401;-66
2023/05/25 10:14:40;0.00;0.00;0.62;0.00;0.00;0.62;4.93;3.87;;;26.10;23.60;;;;;;2248352;61;20394;-66
2023/05/25 10:17:46;0.00;0.00;0.62;0.00;0.00;0.62;4.97;3.57;;;26.10;23.60;;;;;;2252898;61;20911;-66
2023/05/25 10:20:50;0.00;0.00;0.62;0.00;0.00;0.62;5.63;3.93;;;26.10;23.60;;;;;;2251792;61;20371;-64
2023/05/25 10:23:58;0.00;0.00;0.62;0.00;0.00;0.62;4.27;3.87;;;26.10;23.60;;;;;;2250121;61;20454;-66
2023/05/25 10:26:53;0.00;0.00;0.62;0.00;0.00;0.62;3.23;2.93;;;26.20;23.70;;;;;;2248420;61;20372;-66
2023/05/25 10:30:12;0.00;0.00;0.62;0.00;0.00;0.62;3.50;3.20;;;26.10;23.60;;;;;;2247662;61;20375;-66
2023/05/25 10:33:05;0.00;0.00;0.62;0.00;0.00;0.62;5.20;3.73;;;26.10;23.60;;;;;;2248529;61;20464;-65
2023/05/25 10:36:05;0.00;0.00;0.62;0.00;0.00;0.62;4.40;3.70;;;26.10;23.70;;;;;;2247662;61;21039;-66
2023/05/25 10:39:01;0.00;0.00;0.62;0.00;0.00;0.62;4.20;3.80;;;26.10;23.70;;;;;;2248705;61;20884;-66
2023/05/25 10:42:07;0.00;0.00;0.62;0.00;0.00;0.62;4.63;3.27;;;26.10;23.70;;;;;;2248488;61;20441;-66
2023/05/25 10:45:09;0.00;0.00;0.62;0.00;0.00;0.62;3.40;3.10;;;26.20;23.70;;;;;;2248151;61;20435;-64
2023/05/25 10:48:05;0.00;0.00;0.62;0.00;0.00;0.62;3.97;3.23;;;26.20;23.70;;;;;;2248843;61;20371;-64
2023/05/25 10:50:50;0.00;0.00;0.62;0.00;0.00;0.62;4.17;3.50;;;26.10;23.70;;;;;;2244123;61;20391;-65
2023/05/25 10:54:00;0.00;0.00;0.62;0.00;0.00;0.62;3.53;3.10;;;26.20;23.70;;;;;;2248658;61;20423;-64
2023/05/25 10:57:28;0.00;0.00;0.62;0.00;0.00;0.62;4.00;3.60;;;26.20;23.70;;;;;;2248295;61;20400;-66
2023/05/25 11:00:35;0.00;0.00;0.62;0.00;0.00;0.62;4.13;3.33;;;26.20;23.70;;;;;;2248323;61;20387;-66
2023/05/25 11:03:56;0.00;0.00;0.62;0.00;0.00;0.62;5.53;3.90;;;26.20;23.70;;;;;;2241528;61;20431;-65
2023/05/25 11:07:25;;;;;;;;;;;;;;;;;;;;;
2023/05/25 11:10:40;0.00;0.00;0.62;0.00;0.00;0.62;3.93;2.87;;;26.20;23.70;;;;;;2244547;61;20792;-66
2023/05/25 11:13:42;0.00;0.00;0.62;0.00;0.00;0.62;3.43;2.67;;;26.20;23.70;;;;;;2244270;61;20369;-65
2023/05/25 11:16:39;0.00;0.00;0.62;0.00;0.00;0.62;4.90;2.97;;;26.20;23.80;;;;;;2253391;61;20382;-64
2023/05/25 11:19:49;0.00;0.00;0.62;0.00;0.00;0.62;3.67;3.27;;;26.20;23.70;;;;;;2252318;61;20404;-65
2023/05/25 11:22:36;0.00;0.00;0.62;0.00;0.00;0.62;4.10;2.83;;;26.20;23.80;;;;;;2253453;61;20406;-65
2023/05/25 11:25:44;0.00;0.00;0.62;0.00;0.00;0.62;2.90;2.63;;;26.20;23.80;;;;;;2253226;61;20390;-66
2023/05/25 11:28:44;0.00;0.00;0.62;0.00;0.00;0.62;2.97;2.53;;;26.20;23.70;;;;;;2252649;61;20414;-66
2023/05/25 11:31:35;0.00;0.00;0.62;0.00;0.00;0.62;4.13;2.60;;;26.20;23.70;;;;;;2250417;61;20884;-66
2023/05/25 11:34:24;0.00;0.00;0.62;0.00;0.00;0.62;3.60;3.30;;;26.20;23.70;;;;;;2252694;61;20382;-66
2023/05/25 11:37:30;0.00;0.00;0.62;0.00;0.00;0.62;3.43;2.70;;;26.20;23.70;;;;;;2253358;61;20971;-66
2023/05/25 11:40:21;0.00;0.00;0.62;0.00;0.00;0.62;3.87;2.40;;;26.20;23.80;;;;;;2252775;61;20390;-66
2023/05/25 11:43:13;0.00;0.00;0.62;0.00;0.00;0.62;4.50;2.87;;;26.20;23.80;;;;;;2249172;61;20366;-67
2023/05/25 11:46:18;0.00;0.00;0.62;0.00;0.00;0.62;2.90;2.53;;;26.20;23.70;;;;;;2253171;61;20448;-65
2023/05/25 11:49:06;0.00;0.00;0.62;0.00;0.00;0.62;2.90;2.40;;;26.20;23.80;;;;;;2252585;61;20405;-65
2023/05/25 11:51:56;0.00;0.00;0.62;0.00;0.00;0.62;2.97;2.33;;;26.20;23.70;;;;;;2252962;61;20389;-65
2023/05/25 11:54:51;0.00;0.00;0.62;0.00;0.00;0.62;3.03;2.73;;;26.20;23.80;;;;;;2253279;61;20490;-65
2023/05/25 11:58:02;0.00;0.00;0.62;0.00;0.00;0.62;3.00;2.70;;;26.20;23.70;;;;;;2252163;61;20367;-66
2023/05/25 12:00:49;0.00;0.00;0.62;0.00;0.00;0.62;3.90;2.57;;;26.20;23.80;;;;;;2248827;61;20379;-64
2023/05/25 12:03:37;0.00;0.00;0.62;0.00;0.00;0.62;4.33;2.70;;;26.20;23.80;;;;;;2248422;61;20784;-66